Data for 05/07/2006

Time Sea-Level Adjusted Pressure Absolute Pressure Temperature Relative Humidity Dew Point   
(mb) (inHg) (mb) (inHg) (C) (F) (%) (C) (F)
00:05 1013 29.91 842 24.86 11.3 52.4 52 1.8 35.2
00:10 1013 29.91 842 24.86 11.5 52.6 52 2 35.6
00:15 1013 29.91 842 24.86 11.4 52.6 53 2.3 36.2
00:20 1013 29.91 842 24.86 11.2 52.2 54 2.3 36.1
00:25 1013 29.91 842 24.86 11.1 51.9 54 2.2 36
00:30 1013 29.91 842 24.86 10.9 51.6 54 2.1 35.8
00:35 1013 29.91 842 24.86 10.5 50.9 55 2 35.6
00:40 1013 29.91 842 24.86 10.1 50.2 55 1.6 34.9
00:45 1013 29.91 842 24.86 10.2 50.3 55 1.6 34.9
00:50 1013 29.91 842 24.86 10.1 50.3 56 1.7 35.1
00:55 1013 29.91 842 24.86 10.1 50.1 56 1.7 35.1
01:00 1013 29.91 842 24.86 10.1 50.1 56 1.7 35
01:05 1013 29.91 842 24.86 10 50 56 1.7 35.1
01:10 1013 29.91 842 24.86 9.9 49.9 56 1.7 35.1
01:15 1013 29.91 842 24.86 10 49.9 56 1.5 34.7
01:20 1013 29.91 842 24.86 10.1 50.3 55 1.6 34.8
01:25 1013 29.91 842 24.86 10.2 50.4 55 1.6 34.9
01:30 1013 29.91 842 24.86 10.2 50.3 55 1.6 34.9
01:35 1013 29.91 842 24.86 10.2 50.3 54 1.4 34.6
01:40 1013 29.91 842 24.86 10.3 50.5 54 1.5 34.6
01:45 1013 29.91 842 24.86 10.4 50.6 54 1.5 34.7
01:50 1013 29.91 842 24.86 10.3 50.5 56 1.9 35.5
01:55 1013 29.91 842 24.86 10.2 50.3 56 1.9 35.4
02:00 1013 29.91 842 24.86 10 50.1 59 2.3 36.2
02:05 1013 29.91 842 24.86 9.5 49.1 61 2.3 36.1
02:10 1013 29.91 842 24.86 9.2 48.5 62 2.2 36
02:15 1013 29.91 842 24.86 9 48.1 64 2.5 36.5
02:20 1013 29.91 842 24.86 9 48.2 63 2.3 36.2
02:25 1013 29.91 842 24.86 9.2 48.6 63 2.5 36.5
02:30 1013 29.91 842 24.86 9.1 48.4 63 2.6 36.6
02:35 1013 29.91 842 24.86 9.1 48.4 63 2.5 36.4
02:40 1013 29.91 842 24.86 9.1 48.4 63 2.5 36.5
02:45 1013 29.91 842 24.86 9.1 48.4 63 2.5 36.4
02:50 1013 29.91 842 24.86 9.2 48.5 63 2.5 36.5
02:55 1013 29.91 842 24.86 9.2 48.6 61 2.2 35.9
03:00 1013 29.91 842 24.86 9.5 49.1 60 2.2 35.9
03:05 1013 29.91 842 24.86 9.8 49.7 58 1.9 35.4
03:10 1013 29.91 842 24.86 9.9 49.8 57 1.9 35.5
03:15 1013 29.91 842 24.86 10 50 59 2.4 36.2
03:20 1013 29.91 842 24.86 9.7 49.5 60 2.5 36.5
03:25 1013 29.91 842 24.86 9.7 49.4 60 2.4 36.3
03:30 1013 29.91 842 24.86 9.7 49.4 60 2.2 36
03:35 1013 29.91 842 24.86 9.7 49.5 59 2.1 35.8
03:40 1013 29.91 842 24.86 9.8 49.6 58 2.1 35.7
03:45 1013 29.91 842 24.86 9.5 49.1 61 2.4 36.2
03:50 1013 29.91 842 24.86 9.1 48.4 62 2.2 36
03:55 1013 29.91 842 24.86 8.9 48.1 63 2.2 36
04:00 1013 29.91 842 24.86 8.7 47.6 64 2.2 36
04:05 1013 29.91 842 24.86 8.6 47.6 62 1.8 35.2
04:10 1013 29.91 842 24.86 8.8 47.9 62 2.1 35.7
04:15 1013 29.91 842 24.86 8.9 47.9 62 2 35.7
04:20 1013 29.91 842 24.86 8.8 47.8 62 2 35.6
04:25 1013 29.91 842 24.86 8.9 48 61 1.8 35.2
04:30 1013 29.91 842 24.86 9 48.3 60 1.6 35
04:35 1013 29.91 842 24.86 9.1 48.4 59 1.7 35
04:40 1013 29.91 842 24.86 9.1 48.4 61 2.1 35.8
04:45 1013 29.91 842 24.86 8.9 48 62 2.1 35.8
04:50 1013 29.91 842 24.86 8.6 47.5 62 1.7 35.1
04:55 1013 29.91 842 24.86 8.4 47.1 65 2.3 36.2
05:00 1013 29.91 842 24.86 8.2 46.8 64 1.9 35.4
05:05 1013 29.91 842 24.86 8.3 46.9 66 2.3 36.1
05:10 1013 29.91 842 24.86 8.1 46.6 66 2.2 35.9
05:15 1013 29.91 842 24.86 8.1 46.6 65 1.9 35.4
05:20 1013 29.91 842 24.86 8.3 46.9 64 1.8 35.3
05:25 1013 29.91 842 24.86 8.3 47 63 1.7 35
05:30 1013 29.91 842 24.86 8.4 47 62 1.5 34.7
05:35 1013 29.91 842 24.86 8.5 47.3 61 1.4 34.5
05:40 1013 29.91 842 24.86 8.7 47.7 60 1.4 34.5
05:45 1013 29.91 842 24.86 8.8 47.9 62 2 35.6
05:50 1013 29.91 842 24.86 8 46.4 65 2 35.6
05:55 1013 29.91 842 24.86 7.8 46 66 1.8 35.2
06:00 1013 29.91 842 24.86 7.6 45.7 66 1.8 35.2
06:05 1013 29.91 842 24.86 7.6 45.7 65 1.6 34.8
06:10 1013 29.91 842 24.86 7.7 45.9 66 1.8 35.2
06:15 1013 29.91 842 24.86 7.8 46 66 1.9 35.5
06:20 1013 29.91 842 24.86 7.7 45.9 67 2.1 35.7
06:25 1013 29.91 842 24.86 7.6 45.8 66 1.8 35.2
06:30 1013 29.91 842 24.86 7.9 46.1 65 1.6 34.9
06:35 1013 29.91 842 24.86 7.9 46.2 66 2 35.6
06:40 1013 29.91 842 24.86 8 46.3 64 1.5 34.7
06:45 1013 29.91 842 24.86 8.3 47 62 1.6 34.8
06:50 1013 29.91 842 24.86 8.4 47.2 61 1.5 34.6
06:55 1013 29.91 842 24.86 8.5 47.3 61 1.5 34.6
07:00 1013 29.91 842 24.86 8.5 47.3 61 1.5 34.7
07:05 1013 29.91 842 24.86 8.4 47.2 57 0.5 32.8
07:10 1013 29.91 842 24.86 8.7 47.7 60 1.4 34.5
07:15 1013 29.91 842 24.86 8.7 47.6 61 1.6 34.9
07:20 1013 29.91 842 24.86 8.5 47.4 61 1.5 34.8
07:25 1013 29.91 842 24.86 8.7 47.7 58 1 33.9
07:30 1013 29.91 842 24.86 9 48.1 58 1.2 34.1
07:35 1013 29.91 842 24.86 8.9 48.1 61 1.7 35.1
07:40 1013 29.91 842 24.86 8.7 47.7 60 1.5 34.6
07:45 1013 29.91 842 24.86 8.8 47.8 62 1.8 35.3
07:50 1013 29.91 842 24.86 8.9 48.1 58 1.3 34.3
07:55 1013 29.91 842 24.86 9.3 48.8 54 0.7 33.2
08:00 1013 29.91 842 24.86 9.5 49 54 0.8 33.4
08:05 1013 29.91 842 24.86 9.6 49.3 53 0.6 33
08:10 1013 29.91 842 24.86 9.7 49.4 54 0.9 33.6
08:15 1013 29.91 842 24.86 9.8 49.6 52 0.4 32.8
08:20 1013 29.91 842 24.86 10.2 50.4 50 0.4 32.8
08:25 1013 29.91 842 24.86 10.5 51 50 0.7 33.2
08:30 1013 29.91 842 24.86 10.7 51.3 49 0.5 33
08:35 1013 29.91 842 24.86 11 51.7 49 0.6 33.1
08:40 1013 29.91 842 24.86 10.8 51.4 49 0.6 33.1
08:45 1013 29.91 842 24.86 11.2 52.2 48 0.8 33.4
08:50 1013 29.91 842 24.86 11.8 53.2 47 0.9 33.7
08:55 1013 29.91 842 24.86 12.2 54 46 1 33.8
09:00 1013 29.91 842 24.86 11.9 53.5 48 1.3 34.4
09:05 1013 29.91 842 24.86 11.7 53.1 47 0.8 33.5
09:10 1013 29.91 842 24.86 12 53.5 46 0.8 33.5
09:15 1013 29.91 842 24.86 11.3 52.4 49 1.1 34
09:20 1013 29.91 842 24.86 11 51.8 50 0.9 33.7
09:25 1013 29.91 842 24.86 11.3 52.3 47 0.6 33
09:30 1013 29.91 842 24.86 12.1 53.9 47 1.2 34.1
09:35 1013 29.91 842 24.86 11.7 53.1 46 0.6 33
09:40 1013 29.91 842 24.86 12.2 53.9 46 0.9 33.6
09:45 1013 29.91 842 24.86 11.8 53.2 46 0.5 32.8
09:50 1013 29.91 842 24.86 11.4 52.5 46 0.1 32.1
09:55 1013 29.91 842 24.86 11.4 52.6 44 -0.5 31.1
10:00 1013 29.91 842 24.86 11.3 52.4 43 -0.6 30.9
10:05 1012 29.88 842 24.86 11.7 53.1 41 -1 30.2
10:10 1012 29.88 842 24.86 12.1 53.7 40 -1.2 29.8
10:15 1012 29.88 842 24.86 12.5 54.5 39 -1 30.1
10:20 1012 29.88 842 24.86 12.2 54 39 -1.4 29.5
10:25 1012 29.88 842 24.86 12.5 54.4 38 -1.4 29.5
10:30 1012 29.88 842 24.86 12.3 54.2 40 -0.8 30.6
10:35 1012 29.88 842 24.86 12.4 54.2 38 -1.3 29.6
10:40 1012 29.88 842 24.86 12.6 54.7 38 -1.2 29.8
10:45 1012 29.88 842 24.86 13 55.3 37 -1.3 29.7
10:50 1012 29.88 842 24.86 13.7 56.6 35 -1.4 29.5
10:55 1012 29.88 842 24.86 13.7 56.7 34 -1.6 29.1
11:00 1012 29.88 842 24.86 13 55.4 36 -1.8 28.7
11:05 1012 29.88 842 24.86 12.9 55.3 39 -0.6 31
11:10 1012 29.88 842 24.86 13 55.5 39 -0.7 30.8
11:15 1012 29.88 842 24.86 13 55.5 37 -1.2 29.8
11:20 1012 29.88 842 24.86 13.1 55.6 39 -0.3 31.4
11:25 1012 29.88 842 24.86 13 55.3 39 -0.6 30.8
11:30 1012 29.88 842 24.86 12.8 55 39 -0.6 30.9
11:35 1012 29.88 842 24.86 13.3 55.9 39 -0.3 31.4
11:40 1012 29.88 841 24.83 13.4 56.1 38 -0.5 31.2
11:45 1012 29.88 841 24.83 13.3 55.9 39 -0.4 31.4
11:50 1012 29.88 841 24.83 13.4 56.1 37 -0.8 30.6
11:55 1012 29.88 841 24.83 13.7 56.6 37 -0.7 30.7
12:00 1012 29.88 841 24.83 13.5 56.3 38 -0.4 31.3
12:05 1012 29.88 841 24.83 13.7 56.6 38 -0.4 31.2
12:10 1012 29.88 841 24.83 13.6 56.6 37 -0.7 30.7
12:15 1012 29.88 841 24.83 13.3 56 39 -0.4 31.3
12:20 1012 29.88 841 24.83 13.3 56 38 -0.6 30.9
12:25 1012 29.88 841 24.83 13.2 55.7 39 -0.4 31.2
12:30 1012 29.88 841 24.83 13.1 55.5 39 -0.5 31.1
12:35 1012 29.88 841 24.83 13.2 55.7 39 -0.3 31.4
12:40 1012 29.88 841 24.83 13.3 55.9 38 -0.7 30.7
12:45 1012 29.88 841 24.83 13.6 56.5 38 -0.5 31.1
12:50 1011 29.85 841 24.83 13.8 56.8 36 -0.9 30.3
12:55 1011 29.85 841 24.83 13.9 57 35 -1.3 29.7
13:00 1011 29.85 841 24.83 13.9 57.1 37 -0.6 31
13:05 1011 29.85 841 24.83 14 57.3 36 -0.9 30.4
13:10 1011 29.85 841 24.83 14.3 57.7 35 -1 30.3
13:15 1011 29.85 841 24.83 14.2 57.5 35 -1 30.2
13:20 1011 29.85 841 24.83 14.5 58.1 35 -0.9 30.4
13:25 1011 29.85 840 24.81 14.4 57.9 35 -0.6 30.8
13:30 1011 29.85 840 24.81 14.7 58.4 34 -0.9 30.4
13:35 1011 29.85 840 24.81 15 59.1 34 -0.7 30.7
13:40 1011 29.85 840 24.81 15.4 59.6 34 -0.3 31.4
13:45 1011 29.85 840 24.81 15.3 59.6 34 -0.3 31.4
13:50 1011 29.85 840 24.81 15.2 59.4 35 -0.2 31.6
13:55 1011 29.85 840 24.81 15.4 59.7 34 -0.5 31.2
14:00 1011 29.85 840 24.81 15.7 60.3 34 -0.1 31.8
14:05 1011 29.85 840 24.81 15.8 60.4 34 0.1 32.2
14:10 1011 29.85 840 24.81 16 60.7 33 -0.1 31.8
14:15 1011 29.85 840 24.81 15.6 60.1 34 -0.3 31.5
14:20 1011 29.85 840 24.81 15 58.9 35 -0.2 31.7
14:25 1011 29.85 840 24.81 15.1 59.2 35 -0.3 31.5
14:30 1011 29.85 840 24.81 14.8 58.7 33 -1.2 29.8
14:35 1011 29.85 840 24.81 14.7 58.5 34 -0.8 30.6
14:40 1011 29.85 840 24.81 15.1 59.1 35 -0.2 31.6
14:45 1010 29.83 840 24.81 15.2 59.4 34 -0.6 30.9
14:50 1010 29.83 840 24.81 15.2 59.4 34 -0.3 31.5
14:55 1010 29.83 840 24.81 15.2 59.3 34 -0.5 31.1
15:00 1010 29.83 840 24.81 15 59 35 -0.4 31.3
15:05 1010 29.83 840 24.81 14.9 58.8 35 -0.3 31.4
15:10 1010 29.83 840 24.81 14.9 58.9 35 -0.2 31.6
15:15 1010 29.83 840 24.81 15 59 36 0.2 32.4
15:20 1010 29.83 840 24.81 14.7 58.5 40 1.3 34.4
15:25 1010 29.83 840 24.81 14.6 58.3 36 -0 32
15:30 1010 29.83 839 24.78 14.7 58.5 38 0.7 33.3
15:35 1010 29.83 839 24.78 14.7 58.4 38 0.5 32.9
15:40 1010 29.83 839 24.78 14.5 58 41 1.6 34.9
15:45 1010 29.83 839 24.78 14.1 57.4 40 0.9 33.7
15:50 1010 29.83 839 24.78 14 57.2 40 0.7 33.3
15:55 1010 29.83 839 24.78 14.1 57.4 40 0.9 33.7
16:00 1010 29.83 839 24.78 14.2 57.6 40 0.8 33.5
16:05 1010 29.83 839 24.78 14.5 58.1 39 0.6 33.1
16:10 1010 29.83 839 24.78 14.6 58.3 39 0.8 33.4
16:15 1010 29.83 839 24.78 14.6 58.3 40 1.2 34.2
16:20 1010 29.83 840 24.81 14.5 58.1 40 1.1 34
16:25 1010 29.83 840 24.81 14.2 57.6 40 1 33.8
16:30 1010 29.83 840 24.81 14.1 57.3 42 1.3 34.3
16:35 1010 29.83 840 24.81 14 57.2 41 1.2 34.2
16:40 1010 29.83 840 24.81 13.9 56.9 41 1.1 33.9
16:45 1010 29.83 840 24.81 13.9 57 41 1 33.9
16:50 1011 29.85 840 24.81 13.8 56.8 41 1 33.7
16:55 1011 29.85 840 24.81 13.6 56.4 43 1.2 34.2
17:00 1011 29.85 840 24.81 13.5 56.3 44 1.4 34.5
17:05 1011 29.85 840 24.81 13.4 56.1 47 2.5 36.4
17:10 1011 29.85 840 24.81 13.2 55.8 46 1.9 35.5
17:15 1011 29.85 840 24.81 13.3 55.9 45 1.7 35
17:20 1011 29.85 840 24.81 13.4 56 45 1.8 35.2
17:25 1011 29.85 840 24.81 13.2 55.7 45 1.6 34.8
17:30 1011 29.85 840 24.81 13.2 55.8 46 1.8 35.2
17:35 1011 29.85 840 24.81 13.1 55.6 47 2 35.7
17:40 1011 29.85 840 24.81 13.1 55.6 48 2.3 36.1
17:45 1011 29.85 840 24.81 13.1 55.6 49 2.6 36.7
17:50 1011 29.85 840 24.81 13 55.4 52 3.5 38.3
17:55 1011 29.85 840 24.81 12.9 55.3 49 2.5 36.5
18:00 1011 29.85 840 24.81 12.7 54.9 52 3.2 37.8
18:05 1011 29.85 840 24.81 12.2 54 53 2.9 37.2
18:10 1011 29.85 840 24.81 12 53.5 59 4.3 39.7
18:15 1011 29.85 840 24.81 11.5 52.7 59 3.8 38.9
18:20 1011 29.85 840 24.81 11.3 52.4 60 3.8 38.8
18:25 1011 29.85 840 24.81 11.5 52.6 56 3 37.4
18:30 1011 29.85 840 24.81 11.6 52.8 55 2.9 37.2
18:35 1011 29.85 840 24.81 11.3 52.4 57 3.1 37.5
18:40 1011 29.85 840 24.81 11 51.8 58 3.1 37.6
18:45 1011 29.85 840 24.81 10.9 51.6 58 3.1 37.6
18:50 1011 29.85 840 24.81 10.9 51.6 58 2.9 37.2
18:55 1011 29.85 841 24.83 10.9 51.5 58 2.9 37.1
19:00 1012 29.88 841 24.83 10.8 51.4 62 3.9 39.1
19:05 1012 29.88 841 24.83 10.3 50.6 65 4 39.2
19:10 1011 29.85 841 24.83 9.9 49.8 68 4.3 39.7
19:15 1011 29.85 841 24.83 9.7 49.4 68 4 39.3
19:20 1011 29.85 841 24.83 9.8 49.6 65 3.4 38.2
19:25 1011 29.85 840 24.81 9.9 49.9 63 3.3 37.9
19:30 1011 29.85 840 24.81 10.2 50.4 58 2.4 36.3
19:35 1011 29.85 840 24.81 10.5 50.9 57 2.5 36.5
19:40 1011 29.85 840 24.81 10.7 51.3 58 2.7 36.9
19:45 1011 29.85 840 24.81 10.8 51.4 57 2.6 36.6
19:50 1011 29.85 840 24.81 10.8 51.4 59 3.1 37.6
19:55 1011 29.85 840 24.81 10.5 50.8 62 3.5 38.4
20:00 1011 29.85 840 24.81 10.3 50.5 64 3.8 38.8
20:05 1011 29.85 840 24.81 10 50 64 3.6 38.5
20:10 1011 29.85 840 24.81 9.7 49.5 66 3.7 38.7
20:15 1011 29.85 840 24.81 9.6 49.3 65 3.4 38.1
20:20 1011 29.85 840 24.81 9.7 49.5 63 3 37.4
20:25 1011 29.85 840 24.81 10 49.9 64 3.4 38.2
20:30 1011 29.85 840 24.81 10 50.1 64 3.5 38.3
20:35 1011 29.85 840 24.81 10.1 50.1 61 3 37.5
20:40 1011 29.85 840 24.81 10.1 50.2 57 2 35.7
20:45 1011 29.85 840 24.81 10.1 50.3 58 2.2 36
20:50 1011 29.85 840 24.81 10.2 50.3 57 2.1 35.9
20:55 1011 29.85 840 24.81 10.2 50.3 58 2.4 36.4
21:00 1011 29.85 840 24.81 10.1 50.3 58 2.2 36
21:05 1011 29.85 840 24.81 10.2 50.3 62 3.2 37.7
21:10 1011 29.85 840 24.81 9.7 49.4 67 4 39.1
21:15 1011 29.85 840 24.81 9.3 48.8 66 3.4 38.2
21:20 1011 29.85 840 24.81 9.5 49 65 3.3 38
21:25 1011 29.85 840 24.81 9.6 49.3 64 3.1 37.6
21:30 1011 29.85 840 24.81 9.8 49.6 61 2.5 36.5
21:35 1011 29.85 841 24.83 9.9 49.9 61 2.7 36.9
21:40 1011 29.85 841 24.83 10 49.9 60 2.6 36.8
21:45 1011 29.85 841 24.83 10 49.9 57 1.9 35.5
21:50 1011 29.85 841 24.83 10 50 56 1.6 34.8
21:55 1012 29.88 841 24.83 10 50.1 57 2 35.6
22:00 1012 29.88 841 24.83 10.1 50.1 56 1.7 35
22:05 1012 29.88 841 24.83 10 50 56 1.7 35.1
22:10 1012 29.88 841 24.83 10 50 57 1.8 35.3
22:15 1012 29.88 841 24.83 10 49.9 57 1.8 35.3
22:20 1012 29.88 841 24.83 9.9 49.9 57 1.8 35.2
22:25 1012 29.88 841 24.83 9.9 49.8 57 1.7 35.1
22:30 1012 29.88 841 24.83 9.9 49.8 56 1.7 35
22:35 1012 29.88 841 24.83 9.8 49.6 59 2.3 36.1
22:40 1012 29.88 841 24.83 9.7 49.5 58 1.9 35.5
22:45 1012 29.88 841 24.83 9.4 49 63 2.8 37.1
22:50 1012 29.88 841 24.83 9.2 48.6 62 2.4 36.3
22:55 1012 29.88 841 24.83 9.3 48.7 61 2.3 36.1
23:00 1012 29.88 841 24.83 9.3 48.7 64 2.8 37.1
23:05 1012 29.88 841 24.83 9.1 48.4 65 2.8 37.1
23:10 1012 29.88 841 24.83 9.1 48.3 67 3.2 37.7
23:15 1012 29.88 841 24.83 9 48.2 66 3 37.4
23:20 1012 29.88 841 24.83 9 48.1 65 2.8 37
23:25 1012 29.88 841 24.83 8.9 48 65 2.8 37
23:30 1012 29.88 841 24.83 8.8 47.8 65 2.7 36.8
23:35 1012 29.88 841 24.83 8.7 47.6 69 3.3 38
23:40 1012 29.88 841 24.83 8.4 47.2 71 3.5 38.3
23:45 1012 29.88 841 24.83 8.2 46.7 71 3.3 37.9
23:50 1012 29.88 841 24.83 8.1 46.6 70 3.1 37.5
23:55 1012 29.88 841 24.83 8.2 46.7 71 3.2 37.7
24:00 1012 29.88 841 24.83 8.2 46.7 71 3.3 37.9